createdAt,value
2023-02-15T00:02:01.190Z,17.23
2023-02-15T00:04:47.071Z,17.40
2023-02-15T00:07:16.282Z,16.67
2023-02-15T00:09:43.092Z,17.43
2023-02-15T00:12:11.400Z,16.90
2023-02-15T00:14:38.346Z,15.37
2023-02-15T00:17:07.642Z,16.17
2023-02-15T00:19:37.183Z,18.03
2023-02-15T00:22:04.414Z,18.20
2023-02-15T00:24:31.186Z,18.07
2023-02-15T00:26:58.557Z,18.03
2023-02-15T00:29:25.828Z,15.93
2023-02-15T00:31:53.129Z,17.00
2023-02-15T00:34:25.281Z,15.53
2023-02-15T00:36:52.224Z,14.40
2023-02-15T00:39:19.703Z,16.30
2023-02-15T00:41:48.024Z,15.60
2023-02-15T00:44:16.020Z,16.93
2023-02-15T00:46:43.260Z,15.57
2023-02-15T00:49:10.482Z,15.60
2023-02-15T00:51:37.212Z,16.73
2023-02-15T00:54:03.972Z,15.57
2023-02-15T00:56:30.724Z,15.57
2023-02-15T00:58:57.384Z,17.70
2023-02-15T01:01:24.570Z,16.10
2023-02-15T01:03:51.450Z,14.40
2023-02-15T01:06:18.315Z,15.43
2023-02-15T01:08:46.838Z,13.63
2023-02-15T01:11:22.880Z,15.13
2023-02-15T01:13:52.431Z,14.57
2023-02-15T01:16:20.078Z,14.43
2023-02-15T01:18:46.982Z,14.87
2023-02-15T01:21:16.533Z,12.90
2023-02-15T01:23:43.685Z,14.57
2023-02-15T01:26:11.360Z,13.37
2023-02-15T01:28:41.275Z,13.77
2023-02-15T01:31:10.073Z,11.73
2023-02-15T01:33:38.019Z,12.87
2023-02-15T01:36:05.893Z,13.57
2023-02-15T01:38:33.154Z,13.47
2023-02-15T01:41:19.860Z,13.17
2023-02-15T01:44:25.250Z,13.70
2023-02-15T01:46:53.861Z,12.67
2023-02-15T01:49:24.634Z,12.60
2023-02-15T01:51:53.756Z,13.63
2023-02-15T01:54:30.377Z,12.00
2023-02-15T01:57:01.488Z,13.50
2023-02-15T01:59:28.680Z,12.17
2023-02-15T02:01:58.664Z,12.90
2023-02-15T02:04:37.016Z,14.30
2023-02-15T02:07:05.300Z,13.63
2023-02-15T02:09:32.386Z,11.00
2023-02-15T02:12:00.214Z,13.30
2023-02-15T02:14:27.120Z,11.30
2023-02-15T02:17:04.605Z,13.53
2023-02-15T02:19:55.653Z,15.00
2023-02-15T02:22:45.562Z,13.93
2023-02-15T02:25:30.639Z,13.80
2023-02-15T02:28:34.128Z,13.93
2023-02-15T02:31:19.292Z,12.53
2023-02-15T02:34:04.045Z,14.03
2023-02-15T02:36:42.394Z,13.93
2023-02-15T02:39:15.078Z,13.37
2023-02-15T02:42:20.629Z,13.37
2023-02-15T02:45:01.712Z,15.90
2023-02-15T02:47:37.928Z,14.63
2023-02-15T02:50:13.213Z,13.57
2023-02-15T02:52:48.489Z,14.20
2023-02-15T02:55:23.972Z,14.90
2023-02-15T02:58:05.586Z,14.87
2023-02-15T03:00:43.880Z,18.37
2023-02-15T03:03:18.365Z,13.47
2023-02-15T03:05:48.628Z,14.63
2023-02-15T03:08:22.801Z,14.33
2023-02-15T03:10:54.030Z,13.80
2023-02-15T03:13:21.385Z,14.87
2023-02-15T03:16:09.307Z,14.03
2023-02-15T03:18:41.512Z,13.80
2023-02-15T03:21:09.825Z,12.67
2023-02-15T03:23:37.957Z,14.77
2023-02-15T03:26:08.457Z,13.07
2023-02-15T03:28:42.091Z,12.57
2023-02-15T03:31:11.179Z,12.63
2023-02-15T03:33:43.242Z,13.60
2023-02-15T03:36:42.085Z,13.30
2023-02-15T03:39:26.978Z,12.00
2023-02-15T03:42:07.122Z,11.90
2023-02-15T03:44:42.215Z,12.97
2023-02-15T03:47:15.520Z,12.40
2023-02-15T03:50:29.784Z,12.00
2023-02-15T03:52:58.293Z,10.13
2023-02-15T03:55:25.174Z,11.90
2023-02-15T03:58:11.062Z,9.97
2023-02-15T04:01:00.392Z,11.90
2023-02-15T04:03:44.108Z,10.63
2023-02-15T04:06:10.734Z,10.73
2023-02-15T04:08:55.964Z,12.00
2023-02-15T04:11:22.572Z,11.20
2023-02-15T04:13:57.624Z,10.60
2023-02-15T04:16:28.335Z,11.00
2023-02-15T04:19:14.934Z,10.70
2023-02-15T04:22:00.230Z,9.77
2023-02-15T04:24:45.716Z,9.57
2023-02-15T04:27:12.423Z,10.87
2023-02-15T04:29:39.064Z,12.40
2023-02-15T04:32:06.286Z,9.23
2023-02-15T04:34:32.964Z,11.87
2023-02-15T04:36:59.642Z,12.03
2023-02-15T04:39:26.325Z,12.07
2023-02-15T04:41:53.089Z,10.93
2023-02-15T04:44:19.701Z,12.40
2023-02-15T04:46:46.414Z,12.63
2023-02-15T04:49:13.178Z,11.40
2023-02-15T04:51:39.873Z,11.93
2023-02-15T04:54:06.484Z,12.70
2023-02-15T04:56:34.809Z,10.73
2023-02-15T04:59:01.744Z,11.97
2023-02-15T05:01:28.847Z,12.00
2023-02-15T05:03:55.744Z,14.97
2023-02-15T05:06:22.414Z,10.87
2023-02-15T05:08:49.108Z,12.70
2023-02-15T05:11:15.787Z,11.27
2023-02-15T05:13:42.445Z,11.63
2023-02-15T05:16:09.161Z,11.20
2023-02-15T05:18:35.966Z,11.30
2023-02-15T05:21:02.706Z,13.10
2023-02-15T05:23:29.367Z,12.07
2023-02-15T05:26:14.573Z,13.27
2023-02-15T05:28:41.181Z,14.93
2023-02-15T05:31:12.473Z,13.63
2023-02-15T05:33:39.751Z,12.60
2023-02-15T05:36:07.189Z,12.90
2023-02-15T05:38:34.376Z,13.40
2023-02-15T05:41:01.241Z,15.27
2023-02-15T05:43:28.922Z,15.57
2023-02-15T05:45:56.119Z,15.33
2023-02-15T05:48:25.011Z,13.83
2023-02-15T05:51:18.048Z,14.83
2023-02-15T05:53:44.759Z,13.63
2023-02-15T05:56:13.087Z,14.40
2023-02-15T05:58:41.333Z,16.87
2023-02-15T06:01:16.357Z,14.93
2023-02-15T06:03:43.132Z,15.90
2023-02-15T06:06:10.530Z,13.90
2023-02-15T06:08:41.253Z,15.10
2023-02-15T06:11:08.147Z,15.67
2023-02-15T06:13:38.353Z,14.63
2023-02-15T06:16:06.440Z,15.47
2023-02-15T06:18:33.326Z,15.63
2023-02-15T06:21:00.021Z,14.40
2023-02-15T06:23:26.793Z,16.13
2023-02-15T06:25:53.462Z,14.87
2023-02-15T06:28:20.143Z,16.37
2023-02-15T06:30:47.669Z,14.57
2023-02-15T06:33:14.737Z,14.77
2023-02-15T06:35:41.493Z,15.03
2023-02-15T06:38:08.207Z,14.87
2023-02-15T06:40:34.850Z,14.07
2023-02-15T06:43:05.053Z,18.00
2023-02-15T06:45:31.803Z,16.27
2023-02-15T06:47:58.550Z,14.13
2023-02-15T06:50:25.251Z,16.00
2023-02-15T06:52:57.694Z,16.53
2023-02-15T06:55:24.413Z,14.93
2023-02-15T06:57:51.219Z,14.53
2023-02-15T07:00:19.235Z,14.83
2023-02-15T07:02:46.096Z,15.37
2023-02-15T07:05:12.901Z,15.57
2023-02-15T07:07:39.713Z,16.77
2023-02-15T07:10:07.202Z,14.50
2023-02-15T07:12:43.432Z,19.50
2023-02-15T07:15:15.283Z,17.30
2023-02-15T07:17:42.279Z,16.00
2023-02-15T07:20:18.241Z,15.27
2023-02-15T07:22:45.324Z,19.07
2023-02-15T07:25:12.877Z,16.43
2023-02-15T07:27:40.568Z,16.73
2023-02-15T07:30:10.532Z,15.57
2023-02-15T07:32:37.425Z,14.80
2023-02-15T07:35:04.300Z,15.50
2023-02-15T07:37:30.974Z,15.83
2023-02-15T07:39:57.615Z,18.40
2023-02-15T07:42:24.314Z,18.27
2023-02-15T07:44:50.996Z,20.87
2023-02-15T07:47:17.721Z,18.70
2023-02-15T07:49:44.364Z,20.97
2023-02-15T07:52:11.052Z,16.47
2023-02-15T07:54:37.702Z,18.53
2023-02-15T07:57:04.777Z,21.90
2023-02-15T07:59:31.703Z,16.70
2023-02-15T08:01:58.540Z,14.53
2023-02-15T08:04:25.604Z,15.53
2023-02-15T08:06:55.913Z,18.17
2023-02-15T08:09:22.919Z,15.97
2023-02-15T08:11:49.919Z,17.73
2023-02-15T08:14:23.041Z,21.23
2023-02-15T08:16:52.177Z,19.27
2023-02-15T08:19:30.708Z,17.43
2023-02-15T08:21:59.900Z,21.87
2023-02-15T08:24:28.913Z,17.47
2023-02-15T08:26:56.097Z,16.80
2023-02-15T08:29:25.675Z,18.13
2023-02-15T08:32:03.078Z,17.53
2023-02-15T08:34:32.049Z,15.63
2023-02-15T08:36:58.842Z,13.97
2023-02-15T08:39:25.441Z,16.07
2023-02-15T08:41:52.444Z,14.50
2023-02-15T08:44:20.674Z,17.10
2023-02-15T08:46:48.751Z,16.13
2023-02-15T08:49:20.750Z,16.40
2023-02-15T08:51:48.586Z,17.43
2023-02-15T08:54:19.635Z,16.47
2023-02-15T08:56:47.214Z,14.70
2023-02-15T08:59:19.187Z,15.23
2023-02-15T09:01:47.237Z,17.03
2023-02-15T09:04:14.115Z,17.13
2023-02-15T09:06:42.382Z,19.33
2023-02-15T09:09:09.512Z,15.97
2023-02-15T09:11:42.097Z,19.70
2023-02-15T09:14:21.188Z,18.03
2023-02-15T09:16:52.566Z,18.67
2023-02-15T09:19:21.395Z,18.53
2023-02-15T09:21:48.275Z,15.57
2023-02-15T09:24:16.926Z,17.33
2023-02-15T09:26:49.264Z,18.67
2023-02-15T09:29:17.391Z,18.60
2023-02-15T09:31:46.683Z,17.83
2023-02-15T09:34:16.856Z,14.60
2023-02-15T09:36:43.800Z,17.93
2023-02-15T09:39:18.071Z,18.40
2023-02-15T09:41:56.612Z,16.87
2023-02-15T09:44:42.457Z,18.63
2023-02-15T09:47:46.656Z,17.17
2023-02-15T09:50:48.149Z,19.07
2023-02-15T09:53:27.075Z,16.10
2023-02-15T09:56:21.191Z,17.70
2023-02-15T09:58:57.115Z,15.13
2023-02-15T10:01:41.390Z,17.73
2023-02-15T10:04:39.294Z,16.23
2023-02-15T10:07:24.057Z,18.37
2023-02-15T10:09:50.733Z,14.50
2023-02-15T10:12:54.631Z,16.23
2023-02-15T10:15:30.410Z,17.27
2023-02-15T10:18:24.475Z,18.93
2023-02-15T10:20:58.938Z,18.50
2023-02-15T10:24:04.227Z,15.60
2023-02-15T10:26:51.199Z,20.23
2023-02-15T10:29:18.244Z,19.33
2023-02-15T10:31:54.081Z,16.97
2023-02-15T10:34:40.242Z,15.43
2023-02-15T10:37:23.164Z,17.47
2023-02-15T10:40:20.773Z,16.67
2023-02-15T10:43:19.691Z,22.67
2023-02-15T10:46:22.223Z,18.23
2023-02-15T10:49:13.650Z,19.47
2023-02-15T10:52:20.010Z,19.93
2023-02-15T10:55:09.881Z,17.63
2023-02-15T10:57:53.728Z,19.77
2023-02-15T11:00:32.042Z,17.03
2023-02-15T11:03:20.312Z,18.03
2023-02-15T11:06:05.670Z,17.63
2023-02-15T11:08:38.083Z,22.53
2023-02-15T11:11:17.536Z,18.00
2023-02-15T11:13:49.368Z,20.30
2023-02-15T11:16:22.051Z,19.27
2023-02-15T11:18:57.075Z,16.80
2023-02-15T11:21:28.506Z,16.60
2023-02-15T11:23:56.224Z,17.13
2023-02-15T11:26:27.483Z,17.10
2023-02-15T11:29:07.563Z,18.03
2023-02-15T11:31:55.326Z,17.93
2023-02-15T11:34:26.658Z,16.30
2023-02-15T11:36:55.827Z,16.50
2023-02-15T11:39:24.345Z,16.03
2023-02-15T11:41:54.964Z,18.30
2023-02-15T11:44:38.238Z,21.10
2023-02-15T11:47:12.959Z,17.30
2023-02-15T11:49:40.252Z,19.73
2023-02-15T11:52:11.531Z,21.67
2023-02-15T11:54:42.732Z,20.80
2023-02-15T11:57:54.459Z,18.17
2023-02-15T12:00:41.544Z,17.93
2023-02-15T12:03:23.548Z,19.80
2023-02-15T12:05:59.610Z,20.87
2023-02-15T12:08:30.385Z,18.47
2023-02-15T12:11:18.510Z,17.60
2023-02-15T12:14:02.358Z,22.93
2023-02-15T12:16:32.589Z,17.33
2023-02-15T12:19:01.880Z,22.40
2023-02-15T12:21:34.383Z,17.80
2023-02-15T12:24:31.625Z,17.33
2023-02-15T12:27:15.764Z,20.77
2023-02-15T12:29:51.328Z,23.40
2023-02-15T12:32:25.969Z,24.37
2023-02-15T12:35:01.504Z,20.53
2023-02-15T12:37:32.986Z,21.70
2023-02-15T12:40:01.508Z,20.53
2023-02-15T12:42:41.935Z,21.83
2023-02-15T12:45:27.416Z,23.57
2023-02-15T12:48:18.165Z,19.93
2023-02-15T12:51:08.885Z,23.73
2023-02-15T12:53:37.201Z,23.73
2023-02-15T12:56:06.462Z,23.13
2023-02-15T12:58:40.931Z,22.17
2023-02-15T13:01:18.275Z,24.00
2023-02-15T13:04:07.136Z,24.17
2023-02-15T13:06:36.672Z,22.07
2023-02-15T13:09:38.822Z,26.37
2023-02-15T13:12:20.547Z,27.90
2023-02-15T13:14:52.392Z,22.50
2023-02-15T13:17:24.196Z,26.33
2023-02-15T13:19:53.483Z,27.57
2023-02-15T13:22:26.857Z,28.30
2023-02-15T13:24:57.771Z,29.90
2023-02-15T13:27:33.932Z,25.67
2023-02-15T13:30:09.813Z,25.00
2023-02-15T13:32:39.170Z,28.43
2023-02-15T13:35:09.486Z,25.17
2023-02-15T13:37:49.769Z,24.50
2023-02-15T13:40:42.207Z,25.27
2023-02-15T13:43:40.829Z,31.03
2023-02-15T13:46:19.238Z,27.83
2023-02-15T13:49:11.294Z,29.77
2023-02-15T13:51:59.651Z,26.37
2023-02-15T13:54:50.571Z,26.63
2023-02-15T13:57:41.246Z,26.97
2023-02-15T14:00:20.020Z,28.77
2023-02-15T14:03:17.616Z,28.17
2023-02-15T14:05:47.420Z,26.03
2023-02-15T14:08:22.872Z,25.50
2023-02-15T14:11:24.390Z,26.33
2023-02-15T14:14:21.588Z,23.90
2023-02-15T14:17:36.569Z,25.00
2023-02-15T14:20:27.493Z,25.30
2023-02-15T14:23:17.201Z,25.87
2023-02-15T14:25:54.323Z,29.63
2023-02-15T14:28:30.969Z,27.10
2023-02-15T14:30:58.474Z,23.70
2023-02-15T14:33:35.314Z,25.33
2023-02-15T14:36:07.290Z,24.73
2023-02-15T14:38:54.765Z,21.83
2023-02-15T14:41:49.837Z,23.97
2023-02-15T14:44:38.718Z,27.33
2023-02-15T14:47:31.239Z,22.97
2023-02-15T14:49:57.962Z,26.57
2023-02-15T14:52:24.603Z,25.57
2023-02-15T14:54:51.239Z,27.87
2023-02-15T14:57:17.808Z,22.20
2023-02-15T14:59:59.254Z,22.77
2023-02-15T15:02:49.760Z,26.77
2023-02-15T15:05:36.446Z,22.87
2023-02-15T15:08:05.675Z,27.27
2023-02-15T15:10:42.053Z,23.57
2023-02-15T15:13:39.128Z,24.47
2023-02-15T15:16:27.218Z,23.87
2023-02-15T15:18:57.191Z,21.93
2023-02-15T15:21:55.604Z,24.40
2023-02-15T15:24:40.492Z,24.77
2023-02-15T15:28:05.440Z,24.00
2023-02-15T15:30:32.165Z,24.30
2023-02-15T15:33:14.867Z,21.13
2023-02-15T15:36:10.435Z,24.00
2023-02-15T15:38:59.679Z,23.20
2023-02-15T15:41:38.369Z,24.23
2023-02-15T15:44:30.737Z,23.23
2023-02-15T15:47:35.611Z,22.80
2023-02-15T15:50:06.205Z,24.20
2023-02-15T15:52:39.466Z,29.67
2023-02-15T15:55:17.703Z,30.03
2023-02-15T15:57:50.494Z,28.60
2023-02-15T16:00:39.415Z,28.93
2023-02-15T16:03:06.531Z,28.07
2023-02-15T16:05:38.619Z,29.77
2023-02-15T16:08:06.149Z,28.27
2023-02-15T16:10:34.934Z,30.37
2023-02-15T16:13:03.027Z,31.10
2023-02-15T16:15:50.905Z,29.33
2023-02-15T16:18:19.714Z,33.10
2023-02-15T16:20:56.023Z,35.20
2023-02-15T16:23:36.387Z,28.97
2023-02-15T16:26:31.923Z,28.47
2023-02-15T16:28:59.642Z,29.63
2023-02-15T16:31:26.431Z,32.80
2023-02-15T16:33:55.354Z,30.67
2023-02-15T16:36:24.779Z,29.90
2023-02-15T16:38:51.371Z,33.33
2023-02-15T16:41:29.724Z,30.03
2023-02-15T16:44:03.933Z,30.70
2023-02-15T16:46:42.057Z,32.33
2023-02-15T16:49:20.075Z,32.40
2023-02-15T16:52:01.532Z,31.07
2023-02-15T16:54:32.115Z,28.70
2023-02-15T16:56:59.606Z,30.47
2023-02-15T16:59:40.537Z,29.87
2023-02-15T17:02:40.087Z,31.60
2023-02-15T17:05:10.704Z,30.23
2023-02-15T17:07:43.316Z,30.67
2023-02-15T17:10:37.277Z,30.43
2023-02-15T17:13:25.808Z,30.57
2023-02-15T17:16:02.030Z,26.63
2023-02-15T17:18:39.321Z,30.33
2023-02-15T17:21:20.405Z,33.53
2023-02-15T17:23:50.748Z,28.07
2023-02-15T17:26:25.725Z,27.67
2023-02-15T17:28:58.763Z,29.07
2023-02-15T17:31:30.796Z,31.57
2023-02-15T17:33:59.282Z,29.43
2023-02-15T17:36:30.159Z,31.13
2023-02-15T17:39:05.684Z,30.70
2023-02-15T17:41:35.200Z,30.47
2023-02-15T17:44:04.010Z,31.13
2023-02-15T17:46:35.800Z,32.60
2023-02-15T17:49:02.880Z,33.50
2023-02-15T17:51:30.107Z,34.63
2023-02-15T17:54:15.254Z,31.97
2023-02-15T17:56:43.178Z,32.00
2023-02-15T17:59:12.305Z,31.63
2023-02-15T18:02:03.768Z,32.60
2023-02-15T18:04:51.065Z,30.90
2023-02-15T18:07:38.526Z,29.20
2023-02-15T18:10:37.662Z,31.17
2023-02-15T18:13:04.532Z,30.67
2023-02-15T18:15:31.395Z,33.00
2023-02-15T18:17:59.326Z,33.30
2023-02-15T18:20:31.594Z,31.13
2023-02-15T18:22:58.558Z,34.80
2023-02-15T18:25:26.715Z,34.40
2023-02-15T18:27:55.267Z,31.30
2023-02-15T18:30:26.213Z,33.63
2023-02-15T18:32:56.743Z,33.67
2023-02-15T18:35:26.579Z,33.77
2023-02-15T18:37:54.492Z,35.50
2023-02-15T18:40:25.015Z,34.67
2023-02-15T18:42:52.416Z,34.47
2023-02-15T18:45:23.817Z,35.80
2023-02-15T18:47:52.130Z,34.33
2023-02-15T18:50:25.186Z,33.87
2023-02-15T18:52:52.574Z,37.17
2023-02-15T18:55:23.792Z,32.73
2023-02-15T18:57:53.724Z,36.53
2023-02-15T19:00:28.661Z,35.87
2023-02-15T19:02:57.232Z,37.87
2023-02-15T19:05:27.686Z,34.47
2023-02-15T19:07:55.749Z,36.57
2023-02-15T19:10:27.889Z,37.77
2023-02-15T19:12:55.978Z,37.47
2023-02-15T19:15:25.867Z,37.40
2023-02-15T19:17:53.687Z,36.63
2023-02-15T19:20:27.344Z,37.60
2023-02-15T19:22:56.775Z,39.87
2023-02-15T19:25:29.149Z,38.60
2023-02-15T19:27:57.568Z,38.43
2023-02-15T19:30:32.692Z,42.27
2023-02-15T19:33:05.503Z,39.73
2023-02-15T19:35:35.728Z,38.67
2023-02-15T19:38:07.864Z,37.60
2023-02-15T19:40:36.744Z,37.13
2023-02-15T19:43:06.247Z,36.30
2023-02-15T19:45:33.607Z,38.30
2023-02-15T19:48:06.397Z,34.77
2023-02-15T19:50:35.073Z,34.40
2023-02-15T19:53:05.503Z,37.50
2023-02-15T19:55:34.881Z,36.60
2023-02-15T19:58:04.998Z,34.57
2023-02-15T20:00:34.207Z,37.00
2023-02-15T20:03:02.275Z,35.47
2023-02-15T20:05:31.309Z,37.60
2023-02-15T20:07:58.938Z,41.23
2023-02-15T20:10:31.278Z,39.43
2023-02-15T20:12:59.026Z,36.53
2023-02-15T20:15:35.736Z,34.10
2023-02-15T20:18:04.280Z,35.83
2023-02-15T20:20:46.567Z,41.10
2023-02-15T20:23:20.185Z,35.97
2023-02-15T20:25:49.541Z,37.43
2023-02-15T20:28:19.146Z,40.17
2023-02-15T20:30:46.409Z,32.33
2023-02-15T20:33:14.238Z,32.70
2023-02-15T20:35:41.680Z,34.77
2023-02-15T20:38:20.286Z,35.43
2023-02-15T20:41:05.766Z,36.33
2023-02-15T20:43:33.674Z,36.17
2023-02-15T20:46:01.428Z,34.87
2023-02-15T20:48:28.295Z,34.03
2023-02-15T20:50:58.434Z,33.03
2023-02-15T20:53:28.973Z,35.23
2023-02-15T20:55:56.721Z,32.83
2023-02-15T20:58:42.255Z,33.60
2023-02-15T21:01:11.828Z,34.53
2023-02-15T21:03:42.405Z,34.30
2023-02-15T21:06:13.928Z,36.13
2023-02-15T21:08:40.873Z,33.60
2023-02-15T21:11:22.210Z,33.97
2023-02-15T21:13:50.904Z,34.73
2023-02-15T21:16:17.865Z,32.40
2023-02-15T21:18:44.819Z,32.70
2023-02-15T21:21:24.279Z,32.17
2023-02-15T21:23:52.969Z,29.83
2023-02-15T21:26:21.574Z,29.90
2023-02-15T21:28:49.097Z,32.23
2023-02-15T21:31:18.806Z,36.23
2023-02-15T21:33:45.862Z,33.97
2023-02-15T21:36:19.401Z,33.60
2023-02-15T21:38:47.385Z,33.27
2023-02-15T21:41:40.560Z,31.83
2023-02-15T21:44:42.599Z,33.07
2023-02-15T21:47:43.903Z,34.17
2023-02-15T21:50:37.458Z,35.60
2023-02-15T21:53:06.037Z,32.87
2023-02-15T21:55:33.246Z,33.00
2023-02-15T21:58:00.509Z,29.63
2023-02-15T22:00:28.605Z,32.00
2023-02-15T22:02:58.293Z,32.37
2023-02-15T22:05:31.304Z,31.33
2023-02-15T22:08:01.076Z,29.03
2023-02-15T22:10:31.573Z,31.97
2023-02-15T22:13:00.802Z,29.63
2023-02-15T22:15:32.949Z,29.37
2023-02-15T22:17:59.578Z,30.87
2023-02-15T22:20:26.401Z,32.93
2023-02-15T22:22:53.211Z,33.57
2023-02-15T22:25:23.091Z,31.67
2023-02-15T22:27:50.866Z,31.20
2023-02-15T22:30:20.067Z,32.47
2023-02-15T22:32:47.181Z,32.17
2023-02-15T22:35:25.934Z,30.33
2023-02-15T22:37:52.697Z,29.23
2023-02-15T22:40:20.596Z,31.23
2023-02-15T22:42:50.202Z,29.50
2023-02-15T22:45:20.119Z,31.00
2023-02-15T22:47:50.324Z,34.00
2023-02-15T22:50:25.908Z,29.37
2023-02-15T22:52:53.942Z,30.87
2023-02-15T22:55:24.617Z,33.07
2023-02-15T22:57:55.943Z,30.73
2023-02-15T23:00:30.418Z,28.47
2023-02-15T23:02:57.298Z,29.97
2023-02-15T23:05:27.533Z,32.67
2023-02-15T23:07:54.505Z,28.47
2023-02-15T23:10:23.948Z,30.77
2023-02-15T23:13:13.020Z,31.60
2023-02-15T23:15:42.399Z,29.70
2023-02-15T23:18:21.541Z,27.20
2023-02-15T23:20:55.161Z,27.43
2023-02-15T23:23:30.491Z,27.80
2023-02-15T23:25:57.908Z,31.07
2023-02-15T23:28:35.737Z,32.43
2023-02-15T23:31:24.759Z,28.70
2023-02-15T23:33:52.679Z,27.53
2023-02-15T23:36:25.390Z,26.80
2023-02-15T23:38:53.186Z,29.33
2023-02-15T23:41:24.630Z,31.67
2023-02-15T23:43:59.230Z,27.50
2023-02-15T23:46:36.606Z,30.50
2023-02-15T23:49:14.632Z,32.40
2023-02-15T23:51:53.439Z,30.63
2023-02-15T23:54:22.286Z,27.97
2023-02-15T23:56:56.340Z,32.13
2023-02-15T23:59:26.068Z,29.70
